createdAt,value
2018-09-25T00:01:37.769Z,102939.00
2018-09-25T00:04:12.833Z,102949.66
2018-09-25T00:06:47.422Z,102945.78
2018-09-25T00:09:22.121Z,102946.69
2018-09-25T00:11:57.220Z,102947.60
2018-09-25T00:14:31.919Z,102953.02
2018-09-25T00:17:06.275Z,102951.45
2018-09-25T00:19:40.802Z,102950.69
2018-09-25T00:22:15.360Z,102955.67
2018-09-25T00:24:50.107Z,102961.51
2018-09-25T00:27:24.669Z,102955.42
2018-09-25T00:29:59.323Z,102955.52
2018-09-25T00:32:33.953Z,102952.94
2018-09-25T00:35:08.447Z,102956.08
2018-09-25T00:37:43.116Z,102961.44
2018-09-25T00:40:17.492Z,102960.95
2018-09-25T00:42:51.900Z,102960.95
2018-09-25T00:45:26.485Z,102958.76
2018-09-25T00:48:00.879Z,102969.31
2018-09-25T00:50:35.547Z,102974.98
2018-09-25T00:53:10.382Z,102975.85
2018-09-25T00:55:44.885Z,102975.85
2018-09-25T00:58:19.397Z,102973.23
2018-09-25T01:00:54.153Z,102973.65
2018-09-25T01:03:28.743Z,102973.20
2018-09-25T01:06:03.209Z,102986.02
2018-09-25T01:08:37.781Z,102987.77
2018-09-25T01:11:12.426Z,103001.45
2018-09-25T01:13:46.819Z,103010.27
2018-09-25T01:16:21.430Z,103000.55
2018-09-25T01:18:55.950Z,102997.05
2018-09-25T01:21:31.241Z,103003.20
2018-09-25T01:24:06.241Z,103000.16
2018-09-25T01:26:40.890Z,103001.49
2018-09-25T01:29:15.444Z,103005.05
2018-09-25T01:31:50.050Z,103005.98
2018-09-25T01:34:24.574Z,103008.67
2018-09-25T01:36:59.210Z,103008.67
2018-09-25T01:39:34.562Z,103008.25
2018-09-25T01:42:09.394Z,103006.08
2018-09-25T01:44:43.890Z,103013.14
2018-09-25T01:47:18.543Z,103004.33
2018-09-25T01:49:52.929Z,103003.84
2018-09-25T01:52:27.602Z,102999.87
2018-09-25T01:55:03.223Z,103005.59
2018-09-25T01:57:38.616Z,103009.09
2018-09-25T02:00:13.268Z,103010.42
2018-09-25T02:02:47.996Z,103012.66
2018-09-25T02:05:22.494Z,103013.50
2018-09-25T02:07:56.910Z,103014.38
2018-09-25T02:10:31.335Z,103013.92
2018-09-25T02:13:05.735Z,103021.04
2018-09-25T02:15:40.405Z,103020.63
2018-09-25T02:18:15.251Z,103029.91
2018-09-25T02:20:49.772Z,103025.08
2018-09-25T02:23:24.865Z,103029.22
2018-09-25T02:25:59.582Z,103030.55
2018-09-25T02:28:34.121Z,103029.84
2018-09-25T02:31:08.464Z,103032.09
2018-09-25T02:33:43.303Z,103040.17
2018-09-25T02:36:17.686Z,103043.38
2018-09-25T02:38:52.373Z,103047.86
2018-09-25T02:41:26.989Z,103050.13
2018-09-25T02:44:01.324Z,103047.91
2018-09-25T02:46:35.930Z,103059.40
2018-09-25T02:49:10.428Z,103055.92
2018-09-25T02:51:44.789Z,103062.55
2018-09-25T02:54:19.162Z,103067.86
2018-09-25T02:56:53.849Z,103075.37
2018-09-25T02:59:28.858Z,103063.45
2018-09-25T03:02:03.842Z,103074.00
2018-09-25T03:04:38.529Z,103070.44
2018-09-25T03:07:12.967Z,103074.84
2018-09-25T03:09:47.409Z,103076.17
2018-09-25T03:12:22.018Z,103084.08
2018-09-25T03:14:56.509Z,103087.60
2018-09-25T03:17:32.114Z,103082.75
2018-09-25T03:20:06.567Z,103085.34
2018-09-25T03:22:41.135Z,103087.16
2018-09-25T03:25:19.465Z,103088.42
2018-09-25T03:27:53.981Z,103083.57
2018-09-25T03:30:28.758Z,103084.45
2018-09-25T03:33:03.293Z,103088.83
2018-09-25T03:35:38.005Z,103099.86
2018-09-25T03:38:12.602Z,103101.19
2018-09-25T03:40:47.139Z,103098.98
2018-09-25T03:43:21.633Z,103100.34
2018-09-25T03:45:56.140Z,103104.77
2018-09-25T03:48:30.723Z,103100.36
2018-09-25T03:51:05.239Z,103110.12
2018-09-25T03:53:39.756Z,103104.39
2018-09-25T03:56:14.601Z,103102.27
2018-09-25T03:58:49.201Z,103105.83
2018-09-25T04:01:24.766Z,103100.52
2018-09-25T04:03:59.267Z,103102.72
2018-09-25T04:06:33.693Z,103100.94
2018-09-25T04:09:08.268Z,103105.83
2018-09-25T04:11:42.922Z,103113.73
2018-09-25T04:14:17.460Z,103114.63
2018-09-25T04:16:52.123Z,103123.49
2018-09-25T04:19:26.790Z,103122.14
2018-09-25T04:22:01.691Z,103127.02
2018-09-25T04:24:36.218Z,103132.27
2018-09-25T04:27:11.063Z,103138.91
2018-09-25T04:29:45.789Z,103141.53
2018-09-25T04:32:20.494Z,103145.96
2018-09-25T04:34:55.578Z,103149.89
2018-09-25T04:37:30.183Z,103156.98
2018-09-25T04:40:04.566Z,103154.30
2018-09-25T04:42:39.602Z,103154.66
2018-09-25T04:45:14.041Z,103155.53
2018-09-25T04:47:48.734Z,103155.95
2018-09-25T04:50:23.177Z,103165.72
2018-09-25T04:52:58.465Z,103164.02
2018-09-25T04:55:33.025Z,103162.27
2018-09-25T04:58:07.554Z,103175.05
2018-09-25T05:00:41.951Z,103170.17
2018-09-25T05:03:16.577Z,103173.68
2018-09-25T05:05:50.921Z,103173.62
2018-09-25T05:08:25.400Z,103172.78
2018-09-25T05:10:59.951Z,103167.42
2018-09-25T05:13:35.724Z,103160.81
2018-09-25T05:16:10.337Z,103171.45
2018-09-25T05:18:44.734Z,103167.44
2018-09-25T05:21:19.485Z,103164.37
2018-09-25T05:23:54.138Z,103173.20
2018-09-25T05:26:28.600Z,103173.62
2018-09-25T05:29:05.255Z,103179.36
2018-09-25T05:31:39.723Z,103179.94
2018-09-25T05:34:14.294Z,103187.28
2018-09-25T05:36:48.773Z,103180.06
2018-09-25T05:39:23.369Z,103186.10
2018-09-25T05:41:57.934Z,103182.06
2018-09-25T05:44:32.444Z,103183.34
2018-09-25T05:47:06.994Z,103184.24
2018-09-25T05:49:42.722Z,103189.13
2018-09-25T05:52:17.129Z,103192.63
2018-09-25T05:54:51.665Z,103189.55
2018-09-25T05:57:31.736Z,103190.44
2018-09-25T06:00:06.326Z,103197.55
2018-09-25T06:02:41.189Z,103201.50
2018-09-25T06:05:15.885Z,103208.99
2018-09-25T06:07:51.384Z,103205.89
2018-09-25T06:10:26.188Z,103208.54
2018-09-25T06:13:00.607Z,103217.73
2018-09-25T06:15:35.974Z,103218.12
2018-09-25T06:18:11.875Z,103212.70
2018-09-25T06:20:47.686Z,103213.00
2018-09-25T06:23:22.151Z,103222.16
2018-09-25T06:25:56.894Z,103223.41
2018-09-25T06:28:31.342Z,103224.62
2018-09-25T06:31:06.078Z,103228.97
2018-09-25T06:33:41.175Z,103224.05
2018-09-25T06:36:15.616Z,103227.04
2018-09-25T06:38:50.214Z,103230.88
2018-09-25T06:41:24.741Z,103236.46
2018-09-25T06:43:59.381Z,103237.58
2018-09-25T06:46:34.001Z,103246.63
2018-09-25T06:49:08.507Z,103247.83
2018-09-25T06:51:43.258Z,103247.86
2018-09-25T06:54:17.938Z,103243.20
2018-09-25T06:56:52.609Z,103243.91
2018-09-25T06:59:27.133Z,103246.00
2018-09-25T07:02:01.684Z,103249.53
2018-09-25T07:04:36.162Z,103251.73
2018-09-25T07:07:11.237Z,103254.40
2018-09-25T07:09:46.134Z,103259.95
2018-09-25T07:12:20.967Z,103255.36
2018-09-25T07:14:55.572Z,103266.72
2018-09-25T07:17:30.405Z,103267.42
2018-09-25T07:20:05.045Z,103272.45
2018-09-25T07:22:39.491Z,103273.89
2018-09-25T07:25:14.094Z,103270.91
2018-09-25T07:27:48.775Z,103282.17
2018-09-25T07:30:23.439Z,103280.04
2018-09-25T07:32:58.130Z,103279.95
2018-09-25T07:35:32.777Z,103276.84
2018-09-25T07:38:07.650Z,103280.17
2018-09-25T07:40:42.257Z,103282.73
2018-09-25T07:43:16.773Z,103289.22
2018-09-25T07:45:51.405Z,103291.83
2018-09-25T07:48:25.911Z,103293.98
2018-09-25T07:51:00.637Z,103291.98
2018-09-25T07:53:35.322Z,103298.88
2018-09-25T07:56:09.841Z,103300.36
2018-09-25T07:58:44.383Z,103312.47
2018-09-25T08:01:18.912Z,103309.53
2018-09-25T08:03:53.702Z,103311.41
2018-09-25T08:06:28.117Z,103315.97
2018-09-25T08:09:02.825Z,103322.27
2018-09-25T08:11:37.355Z,103332.27
2018-09-25T08:14:12.180Z,103332.16
2018-09-25T08:16:46.646Z,103332.53
2018-09-25T08:19:21.139Z,103332.92
2018-09-25T08:21:55.477Z,103337.08
2018-09-25T08:24:30.992Z,103341.61
2018-09-25T08:27:05.433Z,103343.22
2018-09-25T08:29:40.166Z,103346.38
2018-09-25T08:32:14.698Z,103346.25
2018-09-25T08:34:49.271Z,103349.64
2018-09-25T08:37:24.042Z,103348.70
2018-09-25T08:39:58.645Z,103351.80
2018-09-25T08:42:33.091Z,103346.29
2018-09-25T08:45:07.563Z,103349.41
2018-09-25T08:47:42.126Z,103345.42
2018-09-25T08:50:16.791Z,103346.94
2018-09-25T08:52:51.357Z,103345.17
2018-09-25T08:55:25.993Z,103348.34
2018-09-25T08:58:00.492Z,103344.83
2018-09-25T09:00:35.057Z,103349.86
2018-09-25T09:03:09.474Z,103350.08
2018-09-25T09:05:43.998Z,103347.47
2018-09-25T09:08:18.499Z,103356.62
2018-09-25T09:10:53.104Z,103353.31
2018-09-25T09:13:27.668Z,103358.48
2018-09-25T09:16:02.207Z,103362.34
2018-09-25T09:18:36.660Z,103370.56
2018-09-25T09:21:11.301Z,103365.28
2018-09-25T09:23:45.869Z,103367.31
2018-09-25T09:26:20.474Z,103367.32
2018-09-25T09:28:54.973Z,103368.92
2018-09-25T09:31:29.425Z,103377.67
2018-09-25T09:34:03.914Z,103371.58
2018-09-25T09:36:38.351Z,103371.44
2018-09-25T09:39:14.014Z,103368.63
2018-09-25T09:41:48.888Z,103369.02
2018-09-25T09:44:23.286Z,103367.85
2018-09-25T09:47:01.844Z,103366.14
2018-09-25T09:49:36.208Z,103371.85
2018-09-25T09:52:10.676Z,103385.22
2018-09-25T09:54:45.234Z,103381.73
2018-09-25T09:57:20.951Z,103382.50
2018-09-25T09:59:55.410Z,103381.09
2018-09-25T10:02:29.930Z,103381.32
2018-09-25T10:05:04.463Z,103395.93
2018-09-25T10:07:39.197Z,103393.06
2018-09-25T10:10:13.733Z,103392.72
2018-09-25T10:12:48.419Z,103382.50
2018-09-25T10:15:22.782Z,103382.02
2018-09-25T10:17:57.433Z,103385.54
2018-09-25T10:20:31.957Z,103392.08
2018-09-25T10:23:06.603Z,103379.94
2018-09-25T10:25:41.302Z,103382.21
2018-09-25T10:28:15.853Z,103373.91
2018-09-25T10:30:50.329Z,103387.65
2018-09-25T10:33:26.966Z,103380.24
2018-09-25T10:36:01.611Z,103386.14
2018-09-25T10:38:36.288Z,103385.97
2018-09-25T10:41:11.022Z,103396.05
2018-09-25T10:43:45.767Z,103390.89
2018-09-25T10:46:20.325Z,103394.30
2018-09-25T10:48:54.953Z,103384.84
2018-09-25T10:51:29.467Z,103385.03
2018-09-25T10:54:04.949Z,103383.88
2018-09-25T10:56:39.558Z,103380.52
2018-09-25T10:59:14.243Z,103385.56
2018-09-25T11:01:49.803Z,103384.36
2018-09-25T11:04:24.406Z,103389.37
2018-09-25T11:06:58.988Z,103382.45
2018-09-25T11:09:33.781Z,103382.00
2018-09-25T11:12:08.296Z,103373.16
2018-09-25T11:14:42.781Z,103369.20
2018-09-25T11:17:17.106Z,103366.11
2018-09-25T11:19:51.781Z,103376.74
2018-09-25T11:22:26.442Z,103380.45
2018-09-25T11:25:01.038Z,103380.81
2018-09-25T11:27:35.427Z,103367.56
2018-09-25T11:30:10.127Z,103376.59
2018-09-25T11:32:44.652Z,103382.64
2018-09-25T11:35:20.287Z,103381.11
2018-09-25T11:37:54.847Z,103368.55
2018-09-25T11:40:29.435Z,103365.37
2018-09-25T11:43:04.904Z,103368.00
2018-09-25T11:45:39.508Z,103375.86
2018-09-25T11:48:14.098Z,103367.47
2018-09-25T11:50:48.566Z,103370.66
2018-09-25T11:53:23.152Z,103365.97
2018-09-25T11:55:58.666Z,103369.08
2018-09-25T11:58:33.358Z,103365.35
2018-09-25T12:01:07.985Z,103352.16
2018-09-25T12:03:42.683Z,103355.15
2018-09-25T12:06:17.132Z,103360.80
2018-09-25T12:08:51.715Z,103356.87
2018-09-25T12:11:26.181Z,103358.47
2018-09-25T12:14:00.769Z,103352.66
2018-09-25T12:16:35.283Z,103344.28
2018-09-25T12:19:09.806Z,103347.73
2018-09-25T12:21:44.448Z,103352.88
2018-09-25T12:24:19.104Z,103352.17
2018-09-25T12:26:53.749Z,103356.57
2018-09-25T12:29:29.563Z,103349.14
2018-09-25T12:32:04.222Z,103346.00
2018-09-25T12:34:38.913Z,103343.03
2018-09-25T12:37:13.540Z,103326.61
2018-09-25T12:39:47.938Z,103318.63
2018-09-25T12:42:22.950Z,103317.09
2018-09-25T12:47:30.821Z,103323.06
2018-09-25T12:50:05.448Z,103315.70
2018-09-25T12:52:40.113Z,103314.98
2018-09-25T12:55:14.533Z,103319.40
2018-09-25T12:57:49.014Z,103316.20
2018-09-25T13:00:23.504Z,103322.41
2018-09-25T13:02:58.144Z,103320.58
2018-09-25T13:05:32.590Z,103339.09
2018-09-25T13:08:07.242Z,103333.89
2018-09-25T13:10:41.719Z,103331.09
2018-09-25T13:13:16.265Z,103335.91
2018-09-25T13:15:50.859Z,103335.47
2018-09-25T13:18:29.498Z,103335.50
2018-09-25T13:21:04.110Z,103336.25
2018-09-25T13:23:38.649Z,103328.77
2018-09-25T13:26:13.229Z,103329.59
2018-09-25T13:28:48.061Z,103318.66
2018-09-25T13:31:22.626Z,103314.23
2018-09-25T13:33:57.335Z,103314.86
2018-09-25T13:36:31.729Z,103321.73
2018-09-25T13:39:06.385Z,103310.54
2018-09-25T13:41:40.822Z,103313.13
2018-09-25T13:44:15.351Z,103319.05
2018-09-25T13:46:49.873Z,103313.51
2018-09-25T13:49:24.476Z,103314.05
2018-09-25T13:51:58.886Z,103315.48
2018-09-25T13:54:33.518Z,103307.36
2018-09-25T13:57:08.242Z,103305.57
2018-09-25T13:59:42.947Z,103313.86
2018-09-25T14:02:17.596Z,103306.58
2018-09-25T14:04:52.253Z,103297.20
2018-09-25T14:07:26.931Z,103297.47
2018-09-25T14:10:01.567Z,103292.69
2018-09-25T14:12:36.216Z,103293.22
2018-09-25T14:15:10.962Z,103295.30
2018-09-25T14:17:45.407Z,103300.36
2018-09-25T14:20:20.307Z,103302.33
2018-09-25T14:22:54.961Z,103304.93
2018-09-25T14:25:29.682Z,103304.48
2018-09-25T14:28:05.397Z,103311.21
2018-09-25T14:30:40.074Z,103311.55
2018-09-25T14:33:14.660Z,103313.34
2018-09-25T14:35:49.535Z,103306.38
2018-09-25T14:38:24.044Z,103313.50
2018-09-25T14:40:58.645Z,103326.38
2018-09-25T14:43:33.131Z,103321.46
2018-09-25T14:46:07.758Z,103321.00
2018-09-25T14:48:42.244Z,103320.73
2018-09-25T14:51:16.932Z,103315.44
2018-09-25T14:53:51.416Z,103317.02
2018-09-25T14:56:26.038Z,103325.99
2018-09-25T14:59:00.705Z,103311.23
2018-09-25T15:01:35.333Z,103310.29
2018-09-25T15:04:10.009Z,103315.27
2018-09-25T15:06:44.626Z,103310.15
2018-09-25T15:09:19.236Z,103314.66
2018-09-25T15:11:53.882Z,103307.36
2018-09-25T15:14:29.475Z,103308.70
2018-09-25T15:17:04.243Z,103314.00
2018-09-25T15:19:38.850Z,103311.23
2018-09-25T15:22:13.646Z,103318.27
2018-09-25T15:24:49.512Z,103309.17
2018-09-25T15:27:24.107Z,103312.78
2018-09-25T15:29:58.409Z,103309.41
2018-09-25T15:32:33.022Z,103306.48
2018-09-25T15:35:07.349Z,103300.00
2018-09-25T15:37:41.943Z,103303.15
2018-09-25T15:40:18.699Z,103296.10
2018-09-25T15:42:53.133Z,103292.20
2018-09-25T15:45:27.702Z,103291.56
2018-09-25T15:48:02.921Z,103286.16
2018-09-25T15:50:37.228Z,103292.17
2018-09-25T15:53:12.161Z,103283.78
2018-09-25T15:55:46.686Z,103294.83
2018-09-25T15:58:21.303Z,103292.89
2018-09-25T16:00:55.861Z,103299.89
2018-09-25T16:03:30.572Z,103301.47
2018-09-25T16:06:04.872Z,103299.64
2018-09-25T16:08:39.390Z,103298.30
2018-09-25T16:11:14.206Z,103298.94
2018-09-25T16:13:48.743Z,103303.38
2018-09-25T16:16:23.345Z,103303.12
2018-09-25T16:18:58.044Z,103304.72
2018-09-25T16:21:32.695Z,103309.38
2018-09-25T16:24:07.329Z,103295.61
2018-09-25T16:26:41.867Z,103297.35
2018-09-25T16:29:16.456Z,103296.12
2018-09-25T16:31:51.109Z,103290.75
2018-09-25T16:34:25.531Z,103284.65
2018-09-25T16:37:00.020Z,103293.89
2018-09-25T16:39:35.624Z,103285.28
2018-09-25T16:42:10.126Z,103280.49
2018-09-25T16:44:44.815Z,103282.19
2018-09-25T16:47:19.429Z,103275.19
2018-09-25T16:49:53.890Z,103272.58
2018-09-25T16:52:28.437Z,103269.64
2018-09-25T16:55:03.042Z,103266.72
2018-09-25T16:57:37.901Z,103264.70
2018-09-25T17:00:12.649Z,103262.69
2018-09-25T17:02:48.530Z,103253.98
2018-09-25T17:05:23.078Z,103247.06
2018-09-25T17:07:57.816Z,103246.22
2018-09-25T17:10:32.659Z,103247.03
2018-09-25T17:13:07.453Z,103242.59
2018-09-25T17:15:41.994Z,103239.38
2018-09-25T17:18:16.552Z,103239.34
2018-09-25T17:20:51.305Z,103236.66
2018-09-25T17:23:25.930Z,103240.48
2018-09-25T17:26:00.519Z,103239.42
2018-09-25T17:28:35.574Z,103247.48
2018-09-25T17:31:10.164Z,103242.44
2018-09-25T17:33:45.869Z,103239.75
2018-09-25T17:36:20.555Z,103241.67
2018-09-25T17:38:55.139Z,103241.16
2018-09-25T17:41:29.730Z,103242.22
2018-09-25T17:44:04.438Z,103237.86
2018-09-25T17:46:39.161Z,103243.84
2018-09-25T17:49:13.894Z,103244.63
2018-09-25T17:51:49.717Z,103245.16
2018-09-25T17:54:24.146Z,103232.53
2018-09-25T17:56:58.642Z,103242.63
2018-09-25T17:59:33.218Z,103237.95
2018-09-25T18:02:07.960Z,103240.94
2018-09-25T18:04:42.564Z,103245.33
2018-09-25T18:07:17.277Z,103250.86
2018-09-25T18:09:51.933Z,103253.84
2018-09-25T18:12:26.674Z,103250.05
2018-09-25T18:15:03.679Z,103253.13
2018-09-25T18:17:38.554Z,103252.23
2018-09-25T18:20:13.125Z,103248.88
2018-09-25T18:22:47.874Z,103244.67
2018-09-25T18:25:22.593Z,103238.16
2018-09-25T18:27:57.424Z,103243.75
2018-09-25T18:30:32.011Z,103244.74
2018-09-25T18:33:06.722Z,103248.36
2018-09-25T18:35:42.288Z,103250.10
2018-09-25T18:38:16.953Z,103252.50
2018-09-25T18:40:51.399Z,103258.89
2018-09-25T18:43:26.049Z,103259.95
2018-09-25T18:46:00.719Z,103254.18
2018-09-25T18:48:35.214Z,103245.83
2018-09-25T18:51:09.740Z,103252.12
2018-09-25T18:53:44.475Z,103248.34
2018-09-25T18:56:26.789Z,103243.48
2018-09-25T18:59:01.883Z,103250.09
2018-09-25T19:01:36.597Z,103241.86
2018-09-25T19:04:11.590Z,103241.05
2018-09-25T19:06:46.042Z,103241.17
2018-09-25T19:09:20.694Z,103242.54
2018-09-25T19:11:56.160Z,103234.16
2018-09-25T19:14:30.802Z,103240.16
2018-09-25T19:17:05.540Z,103235.02
2018-09-25T19:19:40.229Z,103236.56
2018-09-25T19:22:14.744Z,103236.06
2018-09-25T19:24:49.402Z,103235.22
2018-09-25T19:27:23.990Z,103237.95
2018-09-25T19:29:58.773Z,103239.47
2018-09-25T19:32:33.355Z,103239.59
2018-09-25T19:35:07.970Z,103236.59
2018-09-25T19:37:42.662Z,103233.39
2018-09-25T19:40:17.288Z,103234.84
2018-09-25T19:42:52.000Z,103231.41
2018-09-25T19:45:26.567Z,103223.52
2018-09-25T19:48:01.118Z,103212.55
2018-09-25T19:50:35.822Z,103201.79
2018-09-25T19:53:10.314Z,103195.51
2018-09-25T19:55:44.941Z,103202.37
2018-09-25T19:58:19.458Z,103197.52
2018-09-25T20:02:19.372Z,103203.03
2018-09-25T20:04:54.039Z,103206.14
2018-09-25T20:07:28.529Z,103210.86
2018-09-25T20:10:03.150Z,103205.98
2018-09-25T20:12:37.655Z,103213.95
2018-09-25T20:15:13.246Z,103209.17
2018-09-25T20:17:47.877Z,103214.17
2018-09-25T20:20:22.493Z,103209.12
2018-09-25T20:22:57.060Z,103201.70
2018-09-25T20:25:31.441Z,103200.77
2018-09-25T20:28:06.029Z,103202.33
2018-09-25T20:30:40.768Z,103182.98
2018-09-25T20:33:15.482Z,103189.64
2018-09-25T20:35:52.063Z,103182.37
2018-09-25T20:38:26.589Z,103176.20
2018-09-25T20:41:01.251Z,103180.00
2018-09-25T20:43:35.836Z,103190.59
2018-09-25T20:46:10.600Z,103186.06
2018-09-25T20:48:46.238Z,103184.10
2018-09-25T20:51:20.877Z,103194.79
2018-09-25T20:53:55.354Z,103182.69
2018-09-25T20:56:29.923Z,103173.08
2018-09-25T20:59:08.903Z,103169.09
2018-09-25T21:01:43.491Z,103166.42
2018-09-25T21:04:18.156Z,103166.94
2018-09-25T21:06:52.958Z,103168.69
2018-09-25T21:09:28.496Z,103158.41
2018-09-25T21:12:02.969Z,103142.66
2018-09-25T21:14:37.415Z,103153.22
2018-09-25T21:17:13.423Z,103153.47
2018-09-25T21:19:49.026Z,103160.26
2018-09-25T21:22:23.541Z,103153.06
2018-09-25T21:24:58.265Z,103152.19
2018-09-25T21:27:32.910Z,103153.98
2018-09-25T21:30:07.482Z,103155.67
2018-09-25T21:32:41.947Z,103153.93
2018-09-25T21:35:16.521Z,103167.70
2018-09-25T21:37:51.412Z,103168.00
2018-09-25T21:40:25.924Z,103170.54
2018-09-25T21:43:00.462Z,103172.28
2018-09-25T21:45:35.081Z,103157.02
2018-09-25T21:48:09.905Z,103156.09
2018-09-25T21:50:44.500Z,103153.88
2018-09-25T21:53:19.151Z,103149.98
2018-09-25T21:55:53.842Z,103142.03
2018-09-25T21:58:28.570Z,103147.71
2018-09-25T22:01:03.699Z,103141.44
2018-09-25T22:03:42.215Z,103129.11
2018-09-25T22:06:17.173Z,103124.13
2018-09-25T22:08:51.914Z,103121.58
2018-09-25T22:11:26.584Z,103114.82
2018-09-25T22:14:01.166Z,103117.98
2018-09-25T22:16:35.917Z,103109.50
2018-09-25T22:19:10.632Z,103109.96
2018-09-25T22:21:45.109Z,103107.21
2018-09-25T22:24:19.637Z,103107.62
2018-09-25T22:26:54.158Z,103105.47
2018-09-25T22:29:28.742Z,103098.45
2018-09-25T22:32:03.342Z,103107.29
2018-09-25T22:34:38.357Z,103111.98
2018-09-25T22:37:13.094Z,103102.90
2018-09-25T22:39:47.727Z,103096.63
2018-09-25T22:42:22.475Z,103089.70
2018-09-25T22:44:57.018Z,103086.69
2018-09-25T22:47:31.744Z,103081.69
2018-09-25T22:50:06.334Z,103081.61
2018-09-25T22:52:40.896Z,103078.61
2018-09-25T22:55:15.364Z,103078.49
2018-09-25T22:57:49.952Z,103078.47
2018-09-25T23:00:25.692Z,103075.03
2018-09-25T23:03:00.402Z,103058.09
2018-09-25T23:05:34.956Z,103060.39
2018-09-25T23:08:10.598Z,103059.64
2018-09-25T23:10:46.190Z,103050.34
2018-09-25T23:13:20.757Z,103055.16
2018-09-25T23:15:55.259Z,103040.92
2018-09-25T23:18:29.917Z,103043.33
2018-09-25T23:21:04.599Z,103053.62
2018-09-25T23:23:38.969Z,103046.77
2018-09-25T23:26:14.531Z,103045.72
2018-09-25T23:28:50.225Z,103041.53
2018-09-25T23:31:24.564Z,103038.10
2018-09-25T23:33:59.186Z,103028.86
2018-09-25T23:36:33.907Z,103024.27
2018-09-25T23:39:09.366Z,103019.27
2018-09-25T23:41:47.909Z,103006.31
2018-09-25T23:44:22.277Z,103002.82
2018-09-25T23:47:55.640Z,103008.29
2018-09-25T23:50:30.517Z,103016.59
2018-09-25T23:54:03.915Z,103012.39
2018-09-25T23:57:06.769Z,103000.91
